sensor_id;sensor_type;location;lat;lon;timestamp;P1;durP1;ratioP1;P2;durP2;ratioP2
24086;SDS011;22893;50.572;7.234;2023-02-10T00:01:12;7.22;;;4.95;;
24086;SDS011;22893;50.572;7.234;2023-02-10T00:03:38;9.08;;;4.90;;
24086;SDS011;22893;50.572;7.234;2023-02-10T00:06:06;8.50;;;4.45;;
24086;SDS011;22893;50.572;7.234;2023-02-10T00:08:35;10.23;;;4.70;;
24086;SDS011;22893;50.572;7.234;2023-02-10T00:11:03;8.78;;;4.62;;
24086;SDS011;22893;50.572;7.234;2023-02-10T00:13:33;9.30;;;4.70;;
24086;SDS011;22893;50.572;7.234;2023-02-10T00:16:01;7.65;;;4.50;;
24086;SDS011;22893;50.572;7.234;2023-02-10T00:18:30;8.18;;;5.00;;
24086;SDS011;22893;50.572;7.234;2023-02-10T00:21:08;9.55;;;5.28;;
24086;SDS011;22893;50.572;7.234;2023-02-10T00:23:40;9.18;;;5.10;;
24086;SDS011;22893;50.572;7.234;2023-02-10T00:26:10;11.48;;;5.53;;
24086;SDS011;22893;50.572;7.234;2023-02-10T00:28:39;8.80;;;4.92;;
24086;SDS011;22893;50.572;7.234;2023-02-10T00:31:11;8.45;;;4.95;;
24086;SDS011;22893;50.572;7.234;2023-02-10T00:33:40;8.90;;;4.92;;
24086;SDS011;22893;50.572;7.234;2023-02-10T00:36:09;9.73;;;5.08;;
24086;SDS011;22893;50.572;7.234;2023-02-10T00:38:38;7.75;;;4.47;;
24086;SDS011;22893;50.572;7.234;2023-02-10T00:41:08;9.33;;;5.08;;
24086;SDS011;22893;50.572;7.234;2023-02-10T00:43:40;8.73;;;4.80;;
24086;SDS011;22893;50.572;7.234;2023-02-10T00:46:10;8.05;;;4.22;;
24086;SDS011;22893;50.572;7.234;2023-02-10T00:48:39;9.00;;;4.97;;
24086;SDS011;22893;50.572;7.234;2023-02-10T00:51:07;9.10;;;5.42;;
24086;SDS011;22893;50.572;7.234;2023-02-10T00:53:35;7.30;;;4.87;;
24086;SDS011;22893;50.572;7.234;2023-02-10T00:56:03;9.98;;;5.33;;
24086;SDS011;22893;50.572;7.234;2023-02-10T00:58:30;8.23;;;4.95;;
24086;SDS011;22893;50.572;7.234;2023-02-10T01:00:58;7.20;;;4.35;;
24086;SDS011;22893;50.572;7.234;2023-02-10T01:03:26;8.48;;;4.97;;
24086;SDS011;22893;50.572;7.234;2023-02-10T01:05:53;7.75;;;3.98;;
24086;SDS011;22893;50.572;7.234;2023-02-10T01:08:21;7.22;;;4.55;;
24086;SDS011;22893;50.572;7.234;2023-02-10T01:10:48;7.30;;;4.30;;
24086;SDS011;22893;50.572;7.234;2023-02-10T01:13:15;8.25;;;4.65;;
24086;SDS011;22893;50.572;7.234;2023-02-10T01:15:44;8.03;;;4.47;;
24086;SDS011;22893;50.572;7.234;2023-02-10T01:18:13;8.85;;;4.37;;
24086;SDS011;22893;50.572;7.234;2023-02-10T01:20:41;8.23;;;4.28;;
24086;SDS011;22893;50.572;7.234;2023-02-10T01:23:09;8.23;;;4.35;;
24086;SDS011;22893;50.572;7.234;2023-02-10T01:25:37;9.18;;;4.75;;
24086;SDS011;22893;50.572;7.234;2023-02-10T01:28:05;7.17;;;4.35;;
24086;SDS011;22893;50.572;7.234;2023-02-10T01:30:33;8.18;;;4.47;;
24086;SDS011;22893;50.572;7.234;2023-02-10T01:33:01;6.45;;;4.33;;
24086;SDS011;22893;50.572;7.234;2023-02-10T01:35:29;9.25;;;4.60;;
24086;SDS011;22893;50.572;7.234;2023-02-10T01:37:56;9.85;;;5.30;;
24086;SDS011;22893;50.572;7.234;2023-02-10T01:40:24;6.62;;;3.95;;
24086;SDS011;22893;50.572;7.234;2023-02-10T01:42:52;8.13;;;4.40;;
24086;SDS011;22893;50.572;7.234;2023-02-10T01:45:27;8.10;;;4.28;;
24086;SDS011;22893;50.572;7.234;2023-02-10T01:48:00;7.47;;;4.08;;
24086;SDS011;22893;50.572;7.234;2023-02-10T01:50:30;8.03;;;4.10;;
24086;SDS011;22893;50.572;7.234;2023-02-10T01:52:59;8.85;;;4.15;;
24086;SDS011;22893;50.572;7.234;2023-02-10T01:55:28;8.10;;;4.30;;
24086;SDS011;22893;50.572;7.234;2023-02-10T01:57:59;8.58;;;4.45;;
24086;SDS011;22893;50.572;7.234;2023-02-10T02:00:31;8.03;;;3.83;;
24086;SDS011;22893;50.572;7.234;2023-02-10T02:02:59;8.73;;;4.97;;
24086;SDS011;22893;50.572;7.234;2023-02-10T02:05:29;11.48;;;5.62;;
24086;SDS011;22893;50.572;7.234;2023-02-10T02:08:02;10.08;;;6.70;;
24086;SDS011;22893;50.572;7.234;2023-02-10T02:10:36;13.80;;;7.20;;
24086;SDS011;22893;50.572;7.234;2023-02-10T02:13:11;16.35;;;6.53;;
24086;SDS011;22893;50.572;7.234;2023-02-10T02:18:36;9.18;;;4.22;;
24086;SDS011;22893;50.572;7.234;2023-02-10T02:21:23;8.30;;;4.55;;
24086;SDS011;22893;50.572;7.234;2023-02-10T02:32:21;7.62;;;4.50;;
24086;SDS011;22893;50.572;7.234;2023-02-10T02:34:54;7.92;;;4.10;;
24086;SDS011;22893;50.572;7.234;2023-02-10T02:37:28;10.13;;;4.83;;
24086;SDS011;22893;50.572;7.234;2023-02-10T02:39:58;8.00;;;4.80;;
24086;SDS011;22893;50.572;7.234;2023-02-10T02:42:28;9.25;;;4.75;;
24086;SDS011;22893;50.572;7.234;2023-02-10T02:45:02;7.62;;;4.22;;
24086;SDS011;22893;50.572;7.234;2023-02-10T02:58:37;8.53;;;4.97;;
24086;SDS011;22893;50.572;7.234;2023-02-10T03:01:14;6.53;;;4.20;;
24086;SDS011;22893;50.572;7.234;2023-02-10T03:03:43;8.65;;;3.85;;
24086;SDS011;22893;50.572;7.234;2023-02-10T03:06:11;8.78;;;3.83;;
24086;SDS011;22893;50.572;7.234;2023-02-10T03:08:39;8.23;;;4.15;;
24086;SDS011;22893;50.572;7.234;2023-02-10T03:11:07;5.97;;;3.30;;
24086;SDS011;22893;50.572;7.234;2023-02-10T03:13:35;10.05;;;4.17;;
24086;SDS011;22893;50.572;7.234;2023-02-10T03:16:03;8.90;;;4.87;;
24086;SDS011;22893;50.572;7.234;2023-02-10T03:18:31;6.70;;;3.95;;
24086;SDS011;22893;50.572;7.234;2023-02-10T03:20:58;7.10;;;4.03;;
24086;SDS011;22893;50.572;7.234;2023-02-10T03:23:26;7.05;;;3.98;;
24086;SDS011;22893;50.572;7.234;2023-02-10T03:25:53;7.83;;;3.77;;
24086;SDS011;22893;50.572;7.234;2023-02-10T03:28:22;7.67;;;3.80;;
24086;SDS011;22893;50.572;7.234;2023-02-10T03:30:50;6.65;;;4.08;;
24086;SDS011;22893;50.572;7.234;2023-02-10T03:33:18;7.33;;;4.47;;
24086;SDS011;22893;50.572;7.234;2023-02-10T03:35:46;7.95;;;4.28;;
24086;SDS011;22893;50.572;7.234;2023-02-10T03:38:13;5.87;;;3.62;;
24086;SDS011;22893;50.572;7.234;2023-02-10T03:40:42;5.70;;;3.77;;
24086;SDS011;22893;50.572;7.234;2023-02-10T03:43:09;7.45;;;3.62;;
24086;SDS011;22893;50.572;7.234;2023-02-10T03:45:37;6.67;;;4.10;;
24086;SDS011;22893;50.572;7.234;2023-02-10T03:48:05;6.15;;;3.85;;
24086;SDS011;22893;50.572;7.234;2023-02-10T03:50:33;7.97;;;3.83;;
24086;SDS011;22893;50.572;7.234;2023-02-10T03:53:00;6.28;;;3.55;;
24086;SDS011;22893;50.572;7.234;2023-02-10T03:55:28;8.23;;;3.98;;
24086;SDS011;22893;50.572;7.234;2023-02-10T03:57:56;9.50;;;4.65;;
24086;SDS011;22893;50.572;7.234;2023-02-10T04:00:23;7.67;;;3.98;;
24086;SDS011;22893;50.572;7.234;2023-02-10T04:02:51;7.17;;;4.53;;
24086;SDS011;22893;50.572;7.234;2023-02-10T04:05:18;8.05;;;4.08;;
24086;SDS011;22893;50.572;7.234;2023-02-10T04:07:46;7.67;;;4.17;;
24086;SDS011;22893;50.572;7.234;2023-02-10T04:10:14;8.15;;;4.37;;
24086;SDS011;22893;50.572;7.234;2023-02-10T04:12:41;6.05;;;4.03;;
24086;SDS011;22893;50.572;7.234;2023-02-10T04:15:09;7.03;;;3.62;;
24086;SDS011;22893;50.572;7.234;2023-02-10T04:17:37;7.33;;;3.83;;
24086;SDS011;22893;50.572;7.234;2023-02-10T04:20:04;6.97;;;3.85;;
24086;SDS011;22893;50.572;7.234;2023-02-10T04:22:32;7.30;;;4.15;;
24086;SDS011;22893;50.572;7.234;2023-02-10T04:25:00;8.18;;;4.42;;
24086;SDS011;22893;50.572;7.234;2023-02-10T04:27:27;9.65;;;4.40;;
24086;SDS011;22893;50.572;7.234;2023-02-10T04:29:55;5.97;;;3.50;;
24086;SDS011;22893;50.572;7.234;2023-02-10T04:32:23;6.08;;;3.62;;
24086;SDS011;22893;50.572;7.234;2023-02-10T04:34:50;7.30;;;3.30;;
24086;SDS011;22893;50.572;7.234;2023-02-10T04:37:18;7.00;;;3.55;;
24086;SDS011;22893;50.572;7.234;2023-02-10T04:39:45;6.83;;;3.90;;
24086;SDS011;22893;50.572;7.234;2023-02-10T04:42:13;9.30;;;4.25;;
24086;SDS011;22893;50.572;7.234;2023-02-10T04:44:41;10.38;;;4.87;;
24086;SDS011;22893;50.572;7.234;2023-02-10T04:47:08;7.70;;;4.15;;
24086;SDS011;22893;50.572;7.234;2023-02-10T04:49:36;8.00;;;3.55;;
24086;SDS011;22893;50.572;7.234;2023-02-10T04:52:03;9.55;;;4.50;;
24086;SDS011;22893;50.572;7.234;2023-02-10T04:54:31;5.28;;;3.52;;
24086;SDS011;22893;50.572;7.234;2023-02-10T04:56:58;7.92;;;4.05;;
24086;SDS011;22893;50.572;7.234;2023-02-10T04:59:26;7.17;;;4.17;;
24086;SDS011;22893;50.572;7.234;2023-02-10T05:01:53;8.15;;;4.00;;
24086;SDS011;22893;50.572;7.234;2023-02-10T05:04:21;6.12;;;3.55;;
24086;SDS011;22893;50.572;7.234;2023-02-10T05:06:48;6.67;;;4.00;;
24086;SDS011;22893;50.572;7.234;2023-02-10T05:09:16;7.37;;;4.05;;
24086;SDS011;22893;50.572;7.234;2023-02-10T05:11:43;6.42;;;3.77;;
24086;SDS011;22893;50.572;7.234;2023-02-10T05:14:11;6.67;;;3.37;;
24086;SDS011;22893;50.572;7.234;2023-02-10T05:16:38;10.28;;;4.12;;
24086;SDS011;22893;50.572;7.234;2023-02-10T05:19:06;6.90;;;3.95;;
24086;SDS011;22893;50.572;7.234;2023-02-10T05:21:35;7.15;;;4.28;;
24086;SDS011;22893;50.572;7.234;2023-02-10T05:24:03;6.60;;;3.98;;
24086;SDS011;22893;50.572;7.234;2023-02-10T05:26:30;5.03;;;3.12;;
24086;SDS011;22893;50.572;7.234;2023-02-10T05:28:58;6.10;;;3.47;;
24086;SDS011;22893;50.572;7.234;2023-02-10T05:31:25;6.70;;;3.77;;
24086;SDS011;22893;50.572;7.234;2023-02-10T05:33:53;6.62;;;3.67;;
24086;SDS011;22893;50.572;7.234;2023-02-10T05:36:20;6.67;;;3.83;;
24086;SDS011;22893;50.572;7.234;2023-02-10T05:38:48;10.13;;;4.47;;
24086;SDS011;22893;50.572;7.234;2023-02-10T05:41:34;6.22;;;3.67;;
24086;SDS011;22893;50.572;7.234;2023-02-10T05:44:07;8.43;;;3.85;;
24086;SDS011;22893;50.572;7.234;2023-02-10T05:46:31;6.30;;;3.42;;
24086;SDS011;22893;50.572;7.234;2023-02-10T05:48:58;8.00;;;3.83;;
24086;SDS011;22893;50.572;7.234;2023-02-10T05:51:26;8.03;;;4.42;;
24086;SDS011;22893;50.572;7.234;2023-02-10T05:53:54;8.10;;;4.10;;
24086;SDS011;22893;50.572;7.234;2023-02-10T05:56:21;8.20;;;3.95;;
24086;SDS011;22893;50.572;7.234;2023-02-10T05:58:49;9.35;;;4.20;;
24086;SDS011;22893;50.572;7.234;2023-02-10T06:01:16;7.62;;;3.85;;
24086;SDS011;22893;50.572;7.234;2023-02-10T06:03:44;5.90;;;3.67;;
24086;SDS011;22893;50.572;7.234;2023-02-10T06:06:11;13.53;;;4.50;;
24086;SDS011;22893;50.572;7.234;2023-02-10T06:08:39;9.68;;;4.00;;
24086;SDS011;22893;50.572;7.234;2023-02-10T06:11:06;5.28;;;3.77;;
24086;SDS011;22893;50.572;7.234;2023-02-10T06:13:34;15.68;;;8.70;;
24086;SDS011;22893;50.572;7.234;2023-02-10T06:16:03;15.50;;;6.90;;
24086;SDS011;22893;50.572;7.234;2023-02-10T06:18:31;13.35;;;7.60;;
24086;SDS011;22893;50.572;7.234;2023-02-10T06:20:59;28.95;;;7.78;;
24086;SDS011;22893;50.572;7.234;2023-02-10T06:23:26;10.25;;;4.92;;
24086;SDS011;22893;50.572;7.234;2023-02-10T06:25:54;8.53;;;4.00;;
24086;SDS011;22893;50.572;7.234;2023-02-10T06:28:24;8.15;;;4.10;;
24086;SDS011;22893;50.572;7.234;2023-02-10T06:30:53;8.05;;;4.42;;
24086;SDS011;22893;50.572;7.234;2023-02-10T06:33:21;9.20;;;4.92;;
24086;SDS011;22893;50.572;7.234;2023-02-10T06:35:48;8.13;;;3.77;;
24086;SDS011;22893;50.572;7.234;2023-02-10T06:38:16;7.60;;;3.95;;
24086;SDS011;22893;50.572;7.234;2023-02-10T06:40:44;9.43;;;4.42;;
24086;SDS011;22893;50.572;7.234;2023-02-10T06:43:11;6.58;;;3.85;;
24086;SDS011;22893;50.572;7.234;2023-02-10T06:45:39;7.42;;;4.40;;
24086;SDS011;22893;50.572;7.234;2023-02-10T06:48:06;8.35;;;4.25;;
24086;SDS011;22893;50.572;7.234;2023-02-10T06:50:34;7.87;;;3.98;;
24086;SDS011;22893;50.572;7.234;2023-02-10T06:53:03;8.25;;;4.62;;
24086;SDS011;22893;50.572;7.234;2023-02-10T06:55:31;10.03;;;4.08;;
24086;SDS011;22893;50.572;7.234;2023-02-10T06:57:59;7.05;;;4.15;;
24086;SDS011;22893;50.572;7.234;2023-02-10T07:00:27;8.25;;;4.05;;
24086;SDS011;22893;50.572;7.234;2023-02-10T07:02:58;14.50;;;4.40;;
24086;SDS011;22893;50.572;7.234;2023-02-10T07:05:25;9.78;;;4.53;;
24086;SDS011;22893;50.572;7.234;2023-02-10T07:07:53;7.95;;;3.70;;
24086;SDS011;22893;50.572;7.234;2023-02-10T07:10:22;9.43;;;4.42;;
24086;SDS011;22893;50.572;7.234;2023-02-10T07:12:50;6.97;;;4.55;;
24086;SDS011;22893;50.572;7.234;2023-02-10T07:15:18;7.22;;;4.65;;
24086;SDS011;22893;50.572;7.234;2023-02-10T07:17:47;9.58;;;4.03;;
24086;SDS011;22893;50.572;7.234;2023-02-10T07:20:21;8.78;;;4.45;;
24086;SDS011;22893;50.572;7.234;2023-02-10T07:22:46;6.55;;;3.65;;
24086;SDS011;22893;50.572;7.234;2023-02-10T07:25:13;9.45;;;4.65;;
24086;SDS011;22893;50.572;7.234;2023-02-10T07:27:41;8.75;;;4.10;;
24086;SDS011;22893;50.572;7.234;2023-02-10T07:30:10;9.08;;;4.17;;
24086;SDS011;22893;50.572;7.234;2023-02-10T07:32:38;8.50;;;4.50;;
24086;SDS011;22893;50.572;7.234;2023-02-10T07:35:07;7.62;;;4.30;;
24086;SDS011;22893;50.572;7.234;2023-02-10T07:37:35;8.78;;;4.05;;
24086;SDS011;22893;50.572;7.234;2023-02-10T07:40:04;9.58;;;4.55;;
24086;SDS011;22893;50.572;7.234;2023-02-10T07:42:32;8.33;;;4.85;;
24086;SDS011;22893;50.572;7.234;2023-02-10T07:45:00;6.92;;;3.92;;
24086;SDS011;22893;50.572;7.234;2023-02-10T07:47:28;9.60;;;4.30;;
24086;SDS011;22893;50.572;7.234;2023-02-10T07:49:56;12.35;;;4.60;;
24086;SDS011;22893;50.572;7.234;2023-02-10T07:52:24;9.33;;;4.78;;
24086;SDS011;22893;50.572;7.234;2023-02-10T07:54:51;13.05;;;4.72;;
24086;SDS011;22893;50.572;7.234;2023-02-10T07:57:19;10.15;;;4.83;;
24086;SDS011;22893;50.572;7.234;2023-02-10T07:59:46;8.35;;;4.40;;
24086;SDS011;22893;50.572;7.234;2023-02-10T08:02:14;19.73;;;5.75;;
24086;SDS011;22893;50.572;7.234;2023-02-10T08:04:41;14.58;;;5.22;;
24086;SDS011;22893;50.572;7.234;2023-02-10T08:07:09;10.60;;;4.85;;
24086;SDS011;22893;50.572;7.234;2023-02-10T08:09:37;11.10;;;4.60;;
24086;SDS011;22893;50.572;7.234;2023-02-10T08:12:05;12.80;;;5.47;;
24086;SDS011;22893;50.572;7.234;2023-02-10T08:14:32;8.20;;;4.40;;
24086;SDS011;22893;50.572;7.234;2023-02-10T08:17:00;15.50;;;4.95;;
24086;SDS011;22893;50.572;7.234;2023-02-10T08:19:28;10.03;;;4.00;;
24086;SDS011;22893;50.572;7.234;2023-02-10T08:21:55;9.80;;;4.42;;
24086;SDS011;22893;50.572;7.234;2023-02-10T08:24:23;10.08;;;4.08;;
24086;SDS011;22893;50.572;7.234;2023-02-10T08:26:50;9.20;;;3.90;;
24086;SDS011;22893;50.572;7.234;2023-02-10T08:29:18;12.98;;;5.65;;
24086;SDS011;22893;50.572;7.234;2023-02-10T08:31:48;10.00;;;5.22;;
24086;SDS011;22893;50.572;7.234;2023-02-10T08:34:18;7.60;;;3.45;;
24086;SDS011;22893;50.572;7.234;2023-02-10T08:36:46;10.55;;;4.55;;
24086;SDS011;22893;50.572;7.234;2023-02-10T08:39:14;10.43;;;4.22;;
24086;SDS011;22893;50.572;7.234;2023-02-10T08:41:42;14.58;;;5.03;;
24086;SDS011;22893;50.572;7.234;2023-02-10T08:44:11;9.50;;;4.67;;
24086;SDS011;22893;50.572;7.234;2023-02-10T08:46:39;9.28;;;4.87;;
24086;SDS011;22893;50.572;7.234;2023-02-10T08:49:07;10.53;;;4.97;;
24086;SDS011;22893;50.572;7.234;2023-02-10T08:51:35;18.45;;;5.58;;
24086;SDS011;22893;50.572;7.234;2023-02-10T08:54:04;11.12;;;4.33;;
24086;SDS011;22893;50.572;7.234;2023-02-10T08:56:32;9.75;;;4.33;;
24086;SDS011;22893;50.572;7.234;2023-02-10T08:59:00;9.28;;;4.97;;
24086;SDS011;22893;50.572;7.234;2023-02-10T09:01:28;8.65;;;4.28;;
24086;SDS011;22893;50.572;7.234;2023-02-10T09:03:55;9.20;;;4.75;;
24086;SDS011;22893;50.572;7.234;2023-02-10T09:06:30;9.15;;;4.03;;
24086;SDS011;22893;50.572;7.234;2023-02-10T09:09:01;9.28;;;4.90;;
24086;SDS011;22893;50.572;7.234;2023-02-10T09:11:29;7.65;;;4.25;;
24086;SDS011;22893;50.572;7.234;2023-02-10T09:13:56;7.20;;;4.12;;
24086;SDS011;22893;50.572;7.234;2023-02-10T09:16:24;8.50;;;4.55;;
24086;SDS011;22893;50.572;7.234;2023-02-10T09:18:52;7.95;;;4.60;;
24086;SDS011;22893;50.572;7.234;2023-02-10T09:21:19;10.00;;;4.25;;
24086;SDS011;22893;50.572;7.234;2023-02-10T09:23:47;10.32;;;5.10;;
24086;SDS011;22893;50.572;7.234;2023-02-10T09:26:16;11.57;;;5.53;;
24086;SDS011;22893;50.572;7.234;2023-02-10T09:28:44;9.40;;;5.05;;
24086;SDS011;22893;50.572;7.234;2023-02-10T09:31:12;9.23;;;4.53;;
24086;SDS011;22893;50.572;7.234;2023-02-10T09:33:42;10.93;;;4.60;;
24086;SDS011;22893;50.572;7.234;2023-02-10T09:36:12;8.68;;;3.95;;
24086;SDS011;22893;50.572;7.234;2023-02-10T09:38:43;12.37;;;4.50;;
24086;SDS011;22893;50.572;7.234;2023-02-10T09:52:24;10.13;;;5.33;;
24086;SDS011;22893;50.572;7.234;2023-02-10T09:54:52;11.10;;;4.15;;
24086;SDS011;22893;50.572;7.234;2023-02-10T09:57:35;6.90;;;4.30;;
24086;SDS011;22893;50.572;7.234;2023-02-10T10:03:03;12.58;;;5.03;;
24086;SDS011;22893;50.572;7.234;2023-02-10T10:10:59;10.88;;;4.00;;
24086;SDS011;22893;50.572;7.234;2023-02-10T10:13:30;10.25;;;4.45;;
24086;SDS011;22893;50.572;7.234;2023-02-10T10:21:34;8.03;;;4.65;;
24086;SDS011;22893;50.572;7.234;2023-02-10T10:26:53;11.28;;;4.25;;
24086;SDS011;22893;50.572;7.234;2023-02-10T10:29:43;16.02;;;4.25;;
24086;SDS011;22893;50.572;7.234;2023-02-10T10:32:16;11.80;;;4.15;;
24086;SDS011;22893;50.572;7.234;2023-02-10T10:34:49;10.53;;;4.20;;
24086;SDS011;22893;50.572;7.234;2023-02-10T10:37:19;9.80;;;4.15;;
24086;SDS011;22893;50.572;7.234;2023-02-10T10:39:53;17.42;;;4.42;;
24086;SDS011;22893;50.572;7.234;2023-02-10T10:47:50;14.73;;;5.00;;
24086;SDS011;22893;50.572;7.234;2023-02-10T10:50:20;14.15;;;4.62;;
24086;SDS011;22893;50.572;7.234;2023-02-10T10:52:50;12.95;;;4.92;;
24086;SDS011;22893;50.572;7.234;2023-02-10T10:55:28;10.82;;;4.92;;
24086;SDS011;22893;50.572;7.234;2023-02-10T10:57:59;10.20;;;4.50;;
24086;SDS011;22893;50.572;7.234;2023-02-10T11:00:29;11.80;;;4.70;;
24086;SDS011;22893;50.572;7.234;2023-02-10T11:03:00;7.87;;;3.70;;
24086;SDS011;22893;50.572;7.234;2023-02-10T11:05:33;12.93;;;5.05;;
24086;SDS011;22893;50.572;7.234;2023-02-10T11:08:04;10.30;;;4.30;;
24086;SDS011;22893;50.572;7.234;2023-02-10T11:10:38;9.63;;;3.80;;
24086;SDS011;22893;50.572;7.234;2023-02-10T11:13:19;8.05;;;3.42;;
24086;SDS011;22893;50.572;7.234;2023-02-10T11:15:49;10.85;;;3.90;;
24086;SDS011;22893;50.572;7.234;2023-02-10T11:18:32;13.50;;;4.35;;
24086;SDS011;22893;50.572;7.234;2023-02-10T11:21:05;11.70;;;4.00;;
24086;SDS011;22893;50.572;7.234;2023-02-10T11:23:30;5.45;;;3.40;;
24086;SDS011;22893;50.572;7.234;2023-02-10T11:26:15;6.55;;;3.52;;
24086;SDS011;22893;50.572;7.234;2023-02-10T11:28:34;8.43;;;3.15;;
24086;SDS011;22893;50.572;7.234;2023-02-10T11:31:12;16.20;;;4.42;;
24086;SDS011;22893;50.572;7.234;2023-02-10T11:33:58;6.83;;;4.03;;
24086;SDS011;22893;50.572;7.234;2023-02-10T11:36:33;7.17;;;3.75;;
24086;SDS011;22893;50.572;7.234;2023-02-10T11:39:14;11.60;;;3.90;;
24086;SDS011;22893;50.572;7.234;2023-02-10T11:41:43;10.20;;;4.35;;
24086;SDS011;22893;50.572;7.234;2023-02-10T11:44:30;9.38;;;3.83;;
24086;SDS011;22893;50.572;7.234;2023-02-10T11:46:59;6.55;;;3.75;;
24086;SDS011;22893;50.572;7.234;2023-02-10T11:49:29;9.65;;;3.85;;
24086;SDS011;22893;50.572;7.234;2023-02-10T11:51:59;7.80;;;4.22;;
24086;SDS011;22893;50.572;7.234;2023-02-10T11:54:28;8.90;;;3.67;;
24086;SDS011;22893;50.572;7.234;2023-02-10T11:57:44;16.10;;;3.67;;
24086;SDS011;22893;50.572;7.234;2023-02-10T12:00:02;10.15;;;4.08;;
24086;SDS011;22893;50.572;7.234;2023-02-10T12:08:56;7.70;;;3.42;;
24086;SDS011;22893;50.572;7.234;2023-02-10T17:48:05;9.85;;;3.15;;
24086;SDS011;22893;50.572;7.234;2023-02-10T17:50:35;10.20;;;2.75;;
24086;SDS011;22893;50.572;7.234;2023-02-10T17:53:02;9.88;;;2.58;;
24086;SDS011;22893;50.572;7.234;2023-02-10T17:55:30;9.23;;;2.67;;
24086;SDS011;22893;50.572;7.234;2023-02-10T17:57:57;8.45;;;2.80;;
24086;SDS011;22893;50.572;7.234;2023-02-10T18:00:25;6.35;;;2.90;;
24086;SDS011;22893;50.572;7.234;2023-02-10T18:02:52;6.50;;;3.02;;
24086;SDS011;22893;50.572;7.234;2023-02-10T18:05:20;9.45;;;3.42;;
24086;SDS011;22893;50.572;7.234;2023-02-10T18:07:47;5.92;;;2.37;;
24086;SDS011;22893;50.572;7.234;2023-02-10T18:10:15;12.33;;;3.02;;
24086;SDS011;22893;50.572;7.234;2023-02-10T18:12:43;9.53;;;2.67;;
24086;SDS011;22893;50.572;7.234;2023-02-10T18:15:10;9.65;;;2.60;;
24086;SDS011;22893;50.572;7.234;2023-02-10T18:17:38;9.50;;;2.95;;
24086;SDS011;22893;50.572;7.234;2023-02-10T18:20:07;8.20;;;2.40;;
24086;SDS011;22893;50.572;7.234;2023-02-10T18:22:35;6.03;;;2.83;;
24086;SDS011;22893;50.572;7.234;2023-02-10T18:25:03;6.28;;;2.67;;
24086;SDS011;22893;50.572;7.234;2023-02-10T18:27:31;9.45;;;3.10;;
24086;SDS011;22893;50.572;7.234;2023-02-10T18:29:58;7.22;;;2.60;;
24086;SDS011;22893;50.572;7.234;2023-02-10T18:32:26;6.12;;;2.55;;
24086;SDS011;22893;50.572;7.234;2023-02-10T18:34:54;4.90;;;2.50;;
24086;SDS011;22893;50.572;7.234;2023-02-10T18:37:22;11.40;;;3.45;;
24086;SDS011;22893;50.572;7.234;2023-02-10T18:39:49;7.22;;;2.40;;
24086;SDS011;22893;50.572;7.234;2023-02-10T18:42:18;8.08;;;2.75;;
24086;SDS011;22893;50.572;7.234;2023-02-10T18:44:46;17.15;;;2.77;;
24086;SDS011;22893;50.572;7.234;2023-02-10T18:47:14;11.43;;;2.65;;
24086;SDS011;22893;50.572;7.234;2023-02-10T18:49:41;8.08;;;2.85;;
24086;SDS011;22893;50.572;7.234;2023-02-10T18:52:09;4.62;;;2.33;;
24086;SDS011;22893;50.572;7.234;2023-02-10T18:54:36;6.33;;;2.72;;
24086;SDS011;22893;50.572;7.234;2023-02-10T18:57:04;5.03;;;2.40;;
24086;SDS011;22893;50.572;7.234;2023-02-10T18:59:31;4.97;;;2.47;;
24086;SDS011;22893;50.572;7.234;2023-02-10T19:01:59;7.08;;;2.50;;
24086;SDS011;22893;50.572;7.234;2023-02-10T19:04:27;5.22;;;2.60;;
24086;SDS011;22893;50.572;7.234;2023-02-10T19:06:54;6.95;;;3.17;;
24086;SDS011;22893;50.572;7.234;2023-02-10T19:09:22;10.58;;;2.87;;
24086;SDS011;22893;50.572;7.234;2023-02-10T19:11:50;7.42;;;2.90;;
24086;SDS011;22893;50.572;7.234;2023-02-10T19:14:18;5.35;;;2.80;;
24086;SDS011;22893;50.572;7.234;2023-02-10T19:16:45;8.63;;;3.12;;
24086;SDS011;22893;50.572;7.234;2023-02-10T19:19:13;6.03;;;2.40;;
24086;SDS011;22893;50.572;7.234;2023-02-10T19:21:40;6.95;;;2.77;;
24086;SDS011;22893;50.572;7.234;2023-02-10T19:24:08;5.17;;;2.33;;
24086;SDS011;22893;50.572;7.234;2023-02-10T19:26:38;11.43;;;2.80;;
24086;SDS011;22893;50.572;7.234;2023-02-10T19:29:06;5.35;;;3.22;;
24086;SDS011;22893;50.572;7.234;2023-02-10T19:31:34;6.85;;;2.67;;
24086;SDS011;22893;50.572;7.234;2023-02-10T19:34:01;13.10;;;3.30;;
24086;SDS011;22893;50.572;7.234;2023-02-10T19:36:30;8.65;;;2.83;;
24086;SDS011;22893;50.572;7.234;2023-02-10T19:38:57;5.90;;;2.67;;
24086;SDS011;22893;50.572;7.234;2023-02-10T19:41:25;6.10;;;2.98;;
24086;SDS011;22893;50.572;7.234;2023-02-10T19:43:53;8.70;;;2.98;;
24086;SDS011;22893;50.572;7.234;2023-02-10T19:46:22;5.22;;;2.37;;
24086;SDS011;22893;50.572;7.234;2023-02-10T19:48:50;4.12;;;2.50;;
24086;SDS011;22893;50.572;7.234;2023-02-10T19:51:18;9.18;;;3.50;;
24086;SDS011;22893;50.572;7.234;2023-02-10T19:53:49;7.37;;;2.50;;
24086;SDS011;22893;50.572;7.234;2023-02-10T19:56:18;5.58;;;2.60;;
24086;SDS011;22893;50.572;7.234;2023-02-10T19:58:46;8.28;;;3.20;;
24086;SDS011;22893;50.572;7.234;2023-02-10T20:01:15;6.90;;;3.10;;
24086;SDS011;22893;50.572;7.234;2023-02-10T20:03:45;4.03;;;2.20;;
24086;SDS011;22893;50.572;7.234;2023-02-10T20:06:16;5.35;;;2.40;;
24086;SDS011;22893;50.572;7.234;2023-02-10T20:08:45;10.03;;;2.35;;
24086;SDS011;22893;50.572;7.234;2023-02-10T20:11:13;6.50;;;2.90;;
24086;SDS011;22893;50.572;7.234;2023-02-10T20:13:42;8.63;;;3.12;;
24086;SDS011;22893;50.572;7.234;2023-02-10T20:16:10;5.28;;;2.80;;
24086;SDS011;22893;50.572;7.234;2023-02-10T20:18:38;6.75;;;2.87;;
24086;SDS011;22893;50.572;7.234;2023-02-10T20:21:07;6.70;;;2.70;;
24086;SDS011;22893;50.572;7.234;2023-02-10T20:23:36;5.40;;;3.02;;
24086;SDS011;22893;50.572;7.234;2023-02-10T20:26:05;12.93;;;3.22;;
24086;SDS011;22893;50.572;7.234;2023-02-10T20:28:34;4.15;;;2.60;;
24086;SDS011;22893;50.572;7.234;2023-02-10T20:31:02;5.20;;;2.42;;
24086;SDS011;22893;50.572;7.234;2023-02-10T20:33:31;5.20;;;2.45;;
24086;SDS011;22893;50.572;7.234;2023-02-10T20:35:59;5.42;;;2.42;;
24086;SDS011;22893;50.572;7.234;2023-02-10T20:38:28;4.67;;;3.08;;
24086;SDS011;22893;50.572;7.234;2023-02-10T20:40:57;4.35;;;2.27;;
24086;SDS011;22893;50.572;7.234;2023-02-10T20:43:28;6.10;;;2.62;;
24086;SDS011;22893;50.572;7.234;2023-02-10T20:45:56;5.92;;;2.80;;
24086;SDS011;22893;50.572;7.234;2023-02-10T20:48:23;7.70;;;2.37;;
24086;SDS011;22893;50.572;7.234;2023-02-10T20:50:51;6.80;;;2.55;;
24086;SDS011;22893;50.572;7.234;2023-02-10T20:53:20;4.67;;;2.47;;
24086;SDS011;22893;50.572;7.234;2023-02-10T20:55:48;4.37;;;2.98;;
24086;SDS011;22893;50.572;7.234;2023-02-10T20:58:15;7.65;;;2.90;;
24086;SDS011;22893;50.572;7.234;2023-02-10T21:00:43;9.95;;;2.90;;
24086;SDS011;22893;50.572;7.234;2023-02-10T21:03:11;4.67;;;2.80;;
24086;SDS011;22893;50.572;7.234;2023-02-10T21:05:38;7.58;;;3.50;;
24086;SDS011;22893;50.572;7.234;2023-02-10T21:08:07;5.50;;;3.08;;
24086;SDS011;22893;50.572;7.234;2023-02-10T21:10:38;4.17;;;2.22;;
24086;SDS011;22893;50.572;7.234;2023-02-10T21:13:06;4.95;;;2.80;;
24086;SDS011;22893;50.572;7.234;2023-02-10T21:15:33;6.08;;;2.95;;
24086;SDS011;22893;50.572;7.234;2023-02-10T21:18:01;6.15;;;3.05;;
24086;SDS011;22893;50.572;7.234;2023-02-10T21:20:30;5.42;;;2.60;;
24086;SDS011;22893;50.572;7.234;2023-02-10T21:22:58;5.85;;;2.50;;
24086;SDS011;22893;50.572;7.234;2023-02-10T21:25:25;4.22;;;2.47;;
24086;SDS011;22893;50.572;7.234;2023-02-10T21:27:54;5.67;;;2.70;;
24086;SDS011;22893;50.572;7.234;2023-02-10T21:30:21;3.77;;;2.20;;
24086;SDS011;22893;50.572;7.234;2023-02-10T21:32:50;6.87;;;3.70;;
24086;SDS011;22893;50.572;7.234;2023-02-10T21:35:18;6.70;;;3.30;;